createdAt,value
2022-10-17T00:00:34.495Z,5.40
2022-10-17T00:03:01.841Z,5.33
2022-10-17T00:05:28.500Z,5.26
2022-10-17T00:07:55.619Z,5.11
2022-10-17T00:10:22.858Z,4.97
2022-10-17T00:12:51.093Z,4.85
2022-10-17T00:15:22.486Z,4.87
2022-10-17T00:17:49.981Z,4.88
2022-10-17T00:20:18.237Z,4.93
2022-10-17T00:22:44.944Z,4.94
2022-10-17T00:25:11.971Z,4.91
2022-10-17T00:27:40.359Z,4.89
2022-10-17T00:30:10.332Z,4.98
2022-10-17T00:32:37.092Z,4.93
2022-10-17T00:35:08.497Z,4.90
2022-10-17T00:37:37.535Z,4.79
2022-10-17T00:40:05.863Z,4.77
2022-10-17T00:42:34.606Z,4.76
2022-10-17T00:45:30.640Z,4.79
2022-10-17T00:48:05.585Z,4.82
2022-10-17T00:50:33.669Z,4.84
2022-10-17T00:53:02.813Z,4.64
2022-10-17T00:55:33.353Z,4.36
2022-10-17T00:58:06.709Z,4.19
2022-10-17T01:00:33.518Z,4.00
2022-10-17T01:03:00.175Z,3.99
2022-10-17T01:05:27.083Z,3.97
2022-10-17T01:07:54.735Z,4.01
2022-10-17T01:13:11.199Z,3.93
2022-10-17T01:15:52.877Z,3.94
2022-10-17T01:18:41.517Z,3.84
2022-10-17T01:21:20.400Z,3.91
2022-10-17T01:24:05.397Z,3.92
2022-10-17T01:26:40.402Z,3.87
2022-10-17T01:29:25.046Z,3.82
2022-10-17T01:32:00.888Z,3.70
2022-10-17T01:34:39.485Z,3.63
2022-10-17T01:37:20.806Z,3.63
2022-10-17T01:39:52.822Z,3.66
2022-10-17T01:42:23.835Z,3.68
2022-10-17T01:45:02.808Z,3.63
2022-10-17T01:47:34.076Z,3.48
2022-10-17T01:50:14.118Z,3.54
2022-10-17T01:52:46.676Z,3.60
2022-10-17T01:55:21.248Z,3.62
2022-10-17T01:57:57.698Z,3.60
2022-10-17T02:00:30.041Z,3.39
2022-10-17T02:03:04.285Z,3.33
2022-10-17T02:05:40.624Z,3.38
2022-10-17T02:08:07.519Z,3.42
2022-10-17T02:10:41.686Z,3.38
2022-10-17T02:13:50.045Z,3.44
2022-10-17T02:16:33.963Z,3.40
2022-10-17T02:19:38.359Z,3.36
2022-10-17T02:22:54.145Z,3.38
2022-10-17T02:25:42.264Z,3.40
2022-10-17T02:28:21.254Z,3.45
2022-10-17T02:31:07.575Z,3.47
2022-10-17T02:33:41.872Z,3.56
2022-10-17T02:36:19.118Z,3.57
2022-10-17T02:38:46.598Z,3.61
2022-10-17T02:41:18.584Z,3.61
2022-10-17T02:43:47.908Z,3.59
2022-10-17T02:46:22.968Z,3.60
2022-10-17T02:48:59.000Z,3.53
2022-10-17T02:52:01.170Z,3.56
2022-10-17T02:54:36.711Z,3.45
2022-10-17T02:57:20.481Z,3.50
2022-10-17T02:59:48.248Z,3.47
2022-10-17T03:02:14.966Z,3.53
2022-10-17T03:04:46.592Z,3.51
2022-10-17T03:07:16.003Z,3.45
2022-10-17T03:09:51.542Z,3.51
2022-10-17T03:12:20.842Z,3.52
2022-10-17T03:14:54.139Z,3.65
2022-10-17T03:17:23.960Z,3.78
2022-10-17T03:19:52.225Z,3.66
2022-10-17T03:22:18.894Z,3.65
2022-10-17T03:24:48.563Z,3.54
2022-10-17T03:27:15.373Z,3.58
2022-10-17T03:29:42.273Z,3.55
2022-10-17T03:32:09.509Z,3.50
2022-10-17T03:34:36.183Z,3.51
2022-10-17T03:40:05.838Z,3.46
2022-10-17T03:42:35.585Z,3.51
2022-10-17T03:45:11.011Z,3.63
2022-10-17T03:47:44.056Z,3.60
2022-10-17T03:50:12.290Z,3.58
2022-10-17T03:52:41.880Z,3.61
2022-10-17T03:55:08.724Z,3.63
2022-10-17T03:57:41.100Z,3.61
2022-10-17T04:00:17.571Z,3.56
2022-10-17T04:02:45.162Z,3.47
2022-10-17T04:05:37.445Z,3.39
2022-10-17T04:08:04.896Z,3.34
2022-10-17T04:10:53.748Z,3.35
2022-10-17T04:13:23.192Z,3.33
2022-10-17T04:16:09.055Z,3.24
2022-10-17T04:18:38.348Z,3.24
2022-10-17T04:21:08.087Z,3.29
2022-10-17T04:23:35.659Z,3.22
2022-10-17T04:26:04.078Z,3.29
2022-10-17T04:28:31.584Z,3.36
2022-10-17T04:31:00.224Z,3.42
2022-10-17T04:33:27.142Z,3.42
2022-10-17T04:35:57.598Z,3.40
2022-10-17T04:38:27.730Z,3.42
2022-10-17T04:40:58.143Z,3.30
2022-10-17T04:43:29.142Z,3.36
2022-10-17T04:45:57.923Z,3.48
2022-10-17T04:48:25.346Z,3.37
2022-10-17T04:51:03.833Z,3.31
2022-10-17T04:53:36.329Z,3.49
2022-10-17T04:56:09.227Z,3.39
2022-10-17T04:58:36.530Z,3.36
2022-10-17T05:01:13.085Z,3.35
2022-10-17T05:03:40.888Z,3.38
2022-10-17T05:06:21.506Z,3.30
2022-10-17T05:08:48.756Z,3.23
2022-10-17T05:11:23.348Z,3.35
2022-10-17T05:13:54.337Z,3.29
2022-10-17T05:16:21.952Z,3.23
2022-10-17T05:18:54.017Z,3.27
2022-10-17T05:21:24.981Z,3.17
2022-10-17T05:23:52.450Z,3.28
2022-10-17T05:26:22.515Z,3.32
2022-10-17T05:28:49.574Z,3.34
2022-10-17T05:31:19.342Z,3.23
2022-10-17T05:33:46.352Z,3.28
2022-10-17T05:36:13.058Z,3.22
2022-10-17T05:38:39.752Z,3.25
2022-10-17T05:41:07.952Z,3.40
2022-10-17T05:43:38.193Z,3.31
2022-10-17T05:46:06.523Z,3.34
2022-10-17T05:48:37.173Z,3.33
2022-10-17T05:51:09.204Z,3.28
2022-10-17T05:53:38.743Z,3.59
2022-10-17T05:56:09.964Z,3.65
2022-10-17T05:58:50.246Z,3.65
2022-10-17T06:01:19.748Z,3.74
2022-10-17T06:03:48.410Z,3.79
2022-10-17T06:06:18.015Z,3.75
2022-10-17T06:08:44.919Z,3.66
2022-10-17T06:11:14.991Z,3.57
2022-10-17T06:13:42.205Z,3.51
2022-10-17T06:16:09.078Z,3.63
2022-10-17T06:18:36.089Z,3.67
2022-10-17T06:21:11.292Z,3.63
2022-10-17T06:23:38.482Z,3.73
2022-10-17T06:26:06.518Z,3.76
2022-10-17T06:28:35.109Z,4.09
2022-10-17T06:31:13.922Z,4.09
2022-10-17T06:33:40.724Z,4.11
2022-10-17T06:36:13.337Z,4.04
2022-10-17T06:38:40.842Z,4.03
2022-10-17T06:41:10.384Z,3.98
2022-10-17T06:43:38.207Z,4.12
2022-10-17T06:46:05.239Z,4.22
2022-10-17T06:48:32.235Z,4.32
2022-10-17T06:51:00.763Z,4.33
2022-10-17T06:53:35.075Z,4.36
2022-10-17T06:56:04.310Z,4.54
2022-10-17T06:58:33.730Z,4.66
2022-10-17T07:01:06.181Z,4.67
2022-10-17T07:03:33.139Z,4.58
2022-10-17T07:05:59.800Z,4.69
2022-10-17T07:08:27.032Z,4.76
2022-10-17T07:10:54.137Z,4.86
2022-10-17T07:13:23.812Z,5.00
2022-10-17T07:15:50.525Z,4.91
2022-10-17T07:18:17.197Z,5.02
2022-10-17T07:20:43.830Z,5.04
2022-10-17T07:23:10.510Z,5.14
2022-10-17T07:25:40.058Z,5.20
2022-10-17T07:28:07.010Z,5.35
2022-10-17T07:30:33.763Z,5.54
2022-10-17T07:33:03.853Z,5.68
2022-10-17T07:35:30.696Z,5.68
2022-10-17T07:37:57.423Z,5.67
2022-10-17T07:40:26.599Z,5.63
2022-10-17T07:42:56.547Z,5.69
2022-10-17T07:45:24.009Z,5.87
2022-10-17T07:47:50.744Z,6.03
2022-10-17T07:50:17.583Z,6.15
2022-10-17T07:52:44.317Z,6.34
2022-10-17T07:55:11.038Z,6.54
2022-10-17T07:57:37.725Z,6.59
2022-10-17T08:00:05.405Z,6.69
2022-10-17T08:02:32.529Z,6.79
2022-10-17T08:04:59.419Z,6.95
2022-10-17T08:07:29.298Z,7.03
2022-10-17T08:09:56.479Z,7.17
2022-10-17T08:12:27.750Z,7.20
2022-10-17T08:14:55.752Z,7.24
2022-10-17T08:17:22.583Z,7.46
2022-10-17T08:19:51.424Z,7.66
2022-10-17T08:22:19.773Z,7.71
2022-10-17T08:24:46.951Z,7.86
2022-10-17T08:27:21.578Z,8.06
2022-10-17T08:29:51.640Z,8.19
2022-10-17T08:32:19.477Z,8.45
2022-10-17T08:34:46.341Z,8.55
2022-10-17T08:37:18.646Z,8.66
2022-10-17T08:39:45.849Z,8.75
2022-10-17T08:42:45.858Z,8.90
2022-10-17T08:45:32.334Z,9.07
2022-10-17T08:48:01.188Z,9.27
2022-10-17T08:50:36.862Z,9.41
2022-10-17T08:53:29.212Z,9.34
2022-10-17T08:55:56.786Z,9.36
2022-10-17T08:58:28.176Z,9.52
2022-10-17T09:01:27.440Z,9.59
2022-10-17T09:04:17.317Z,9.70
2022-10-17T09:06:55.743Z,9.79
2022-10-17T09:09:41.591Z,9.76
2022-10-17T09:12:19.270Z,9.88
2022-10-17T09:14:49.098Z,9.86
2022-10-17T09:17:25.861Z,9.97
2022-10-17T09:20:05.717Z,10.10
2022-10-17T09:22:52.303Z,10.13
2022-10-17T09:25:23.953Z,10.21
2022-10-17T09:28:12.750Z,10.31
2022-10-17T09:31:06.035Z,10.64
2022-10-17T09:33:53.792Z,10.55
2022-10-17T09:36:26.704Z,10.55
2022-10-17T09:39:11.522Z,10.90
2022-10-17T09:41:56.209Z,11.08
2022-10-17T09:44:26.136Z,11.12
2022-10-17T09:47:24.138Z,11.07
2022-10-17T09:49:53.842Z,11.10
2022-10-17T09:52:41.616Z,11.30
2022-10-17T09:55:22.754Z,11.53
2022-10-17T09:57:52.294Z,11.62
2022-10-17T10:00:26.122Z,11.74
2022-10-17T10:03:16.346Z,11.91
2022-10-17T10:06:08.115Z,11.93
2022-10-17T10:08:53.173Z,11.82
2022-10-17T10:11:27.690Z,11.84
2022-10-17T10:13:54.608Z,11.88
2022-10-17T10:16:32.209Z,11.79
2022-10-17T10:19:07.052Z,11.98
2022-10-17T10:21:37.342Z,12.44
2022-10-17T10:24:13.872Z,12.46
2022-10-17T10:26:49.175Z,12.53
2022-10-17T10:29:32.490Z,12.45
2022-10-17T10:32:11.981Z,12.56
2022-10-17T10:34:52.821Z,12.86
2022-10-17T10:37:24.151Z,13.04
2022-10-17T10:40:00.378Z,13.08
2022-10-17T10:42:33.932Z,13.02
2022-10-17T10:45:23.682Z,12.92
2022-10-17T10:47:57.677Z,13.28
2022-10-17T10:50:53.440Z,13.35
2022-10-17T10:53:47.433Z,13.35
2022-10-17T10:56:23.034Z,13.46
2022-10-17T10:59:04.438Z,13.59
2022-10-17T11:02:02.439Z,13.58
2022-10-17T11:04:42.348Z,13.68
2022-10-17T11:07:24.911Z,13.66
2022-10-17T11:10:09.400Z,13.58
2022-10-17T11:13:07.109Z,13.58
2022-10-17T11:15:53.981Z,13.82
2022-10-17T11:18:29.100Z,13.88
2022-10-17T11:21:06.045Z,13.81
2022-10-17T11:23:53.384Z,14.02
2022-10-17T11:26:31.343Z,14.19
2022-10-17T11:29:06.810Z,14.25
2022-10-17T11:31:46.206Z,14.02
2022-10-17T11:34:20.865Z,14.18
2022-10-17T11:36:52.961Z,14.07
2022-10-17T11:39:27.863Z,14.22
2022-10-17T11:42:04.327Z,14.26
2022-10-17T11:44:40.453Z,14.16
2022-10-17T11:47:22.762Z,13.96
2022-10-17T11:49:54.500Z,14.01
2022-10-17T11:52:55.390Z,14.20
2022-10-17T11:55:32.829Z,14.45
2022-10-17T11:58:20.206Z,14.66
2022-10-17T12:00:49.965Z,14.80
2022-10-17T12:03:25.996Z,14.89
2022-10-17T12:06:11.607Z,15.00
2022-10-17T12:08:57.897Z,14.97
2022-10-17T12:11:27.636Z,14.82
2022-10-17T12:13:56.336Z,14.84
2022-10-17T12:16:25.002Z,14.71
2022-10-17T12:19:11.458Z,14.91
2022-10-17T12:22:02.958Z,15.01
2022-10-17T12:24:41.045Z,14.85
2022-10-17T12:27:23.651Z,14.76
2022-10-17T12:29:50.696Z,15.00
2022-10-17T12:32:19.972Z,14.79
2022-10-17T12:34:56.675Z,14.67
2022-10-17T12:37:41.958Z,14.64
2022-10-17T12:40:27.269Z,14.74
2022-10-17T12:42:54.627Z,15.00
2022-10-17T12:45:44.846Z,15.17
2022-10-17T12:48:11.293Z,15.40
2022-10-17T12:50:58.332Z,15.36
2022-10-17T12:53:54.265Z,15.33
2022-10-17T12:56:41.002Z,15.18
2022-10-17T12:59:27.736Z,15.10
2022-10-17T13:01:59.171Z,15.14
2022-10-17T13:04:26.912Z,15.31
2022-10-17T13:06:54.954Z,15.47
2022-10-17T13:09:32.828Z,15.47
2022-10-17T13:12:02.520Z,15.45
2022-10-17T13:14:31.420Z,15.36
2022-10-17T13:17:02.827Z,15.40
2022-10-17T13:19:31.464Z,15.48
2022-10-17T13:21:59.881Z,15.43
2022-10-17T13:24:33.265Z,15.30
2022-10-17T13:27:00.577Z,15.47
2022-10-17T13:29:28.733Z,15.68
2022-10-17T13:32:05.623Z,15.56
2022-10-17T13:34:33.310Z,15.38
2022-10-17T13:37:14.323Z,15.45
2022-10-17T13:39:55.161Z,15.51
2022-10-17T13:42:25.055Z,15.74
2022-10-17T13:44:52.152Z,16.01
2022-10-17T13:47:26.241Z,15.96
2022-10-17T13:49:55.449Z,15.77
2022-10-17T13:52:24.183Z,15.88
2022-10-17T13:54:51.677Z,16.09
2022-10-17T13:57:25.334Z,16.32
2022-10-17T13:59:53.808Z,16.46
2022-10-17T14:02:22.069Z,16.57
2022-10-17T14:05:16.091Z,16.69
2022-10-17T14:08:11.383Z,16.84
2022-10-17T14:10:38.861Z,16.95
2022-10-17T14:15:48.886Z,17.31
2022-10-17T14:18:19.343Z,17.45
2022-10-17T14:23:39.157Z,17.86
2022-10-17T14:26:05.936Z,17.91
2022-10-17T14:28:32.604Z,17.99
2022-10-17T14:31:16.647Z,18.16
2022-10-17T14:33:46.876Z,18.15
2022-10-17T14:36:16.487Z,18.33
2022-10-17T14:38:49.765Z,18.22
2022-10-17T14:44:16.997Z,18.29
2022-10-17T14:46:49.563Z,18.25
2022-10-17T14:49:23.196Z,18.30
2022-10-17T14:52:13.418Z,18.19
2022-10-17T14:54:46.568Z,18.23
2022-10-17T14:57:18.097Z,18.10
2022-10-17T14:59:59.938Z,17.95
2022-10-17T15:02:30.766Z,17.41
2022-10-17T15:04:57.861Z,17.28
2022-10-17T15:07:25.058Z,16.93
2022-10-17T15:09:52.899Z,16.36
2022-10-17T15:12:21.738Z,15.17
2022-10-17T15:14:48.629Z,14.51
2022-10-17T15:17:27.646Z,14.20
2022-10-17T15:19:54.853Z,14.03
2022-10-17T15:22:26.962Z,13.71
2022-10-17T15:24:53.926Z,13.69
2022-10-17T15:27:24.747Z,13.55
2022-10-17T15:29:51.801Z,13.51
2022-10-17T15:32:18.636Z,13.28
2022-10-17T15:34:45.201Z,13.17
2022-10-17T15:37:22.020Z,13.00
2022-10-17T15:39:54.807Z,12.96
2022-10-17T15:42:22.761Z,12.88
2022-10-17T15:44:50.405Z,12.90
2022-10-17T15:47:24.588Z,12.82
2022-10-17T15:49:51.101Z,12.79
2022-10-17T15:52:17.674Z,12.67
2022-10-17T15:54:44.264Z,12.61
2022-10-17T15:57:16.570Z,12.54
2022-10-17T15:59:43.809Z,12.49
2022-10-17T16:02:14.683Z,12.40
2022-10-17T16:04:41.296Z,12.32
2022-10-17T16:07:08.085Z,12.23
2022-10-17T16:09:34.977Z,12.15
2022-10-17T16:12:02.234Z,12.09
2022-10-17T16:14:28.782Z,12.01
2022-10-17T16:16:55.257Z,11.96
2022-10-17T16:19:22.827Z,11.95
2022-10-17T16:21:49.459Z,11.94
2022-10-17T16:24:17.820Z,11.90
2022-10-17T16:26:44.309Z,11.83
2022-10-17T16:29:10.893Z,11.82
2022-10-17T16:31:40.552Z,11.76
2022-10-17T16:34:08.975Z,11.72
2022-10-17T16:36:35.539Z,11.63
2022-10-17T16:39:02.773Z,11.59
2022-10-17T16:41:37.380Z,11.56
2022-10-17T16:44:05.092Z,11.49
2022-10-17T16:46:32.166Z,11.39
2022-10-17T16:48:58.772Z,11.33
2022-10-17T16:51:29.285Z,11.31
2022-10-17T16:53:57.607Z,11.24
2022-10-17T16:56:34.578Z,11.22
2022-10-17T16:59:04.462Z,11.07
2022-10-17T17:01:31.653Z,10.99
2022-10-17T17:03:59.069Z,10.95
2022-10-17T17:06:28.279Z,10.90
2022-10-17T17:08:55.927Z,10.87
2022-10-17T17:11:26.477Z,10.82
2022-10-17T17:13:55.743Z,10.78
2022-10-17T17:16:24.559Z,10.75
2022-10-17T17:19:01.693Z,10.71
2022-10-17T17:21:28.975Z,10.62
2022-10-17T17:24:03.910Z,10.56
2022-10-17T17:26:38.373Z,10.57
2022-10-17T17:29:05.194Z,10.55
2022-10-17T17:31:33.698Z,10.41
2022-10-17T17:34:06.838Z,10.41
2022-10-17T17:36:36.516Z,10.35
2022-10-17T17:39:11.555Z,10.31
2022-10-17T17:41:41.875Z,10.30
2022-10-17T17:44:15.762Z,10.23
2022-10-17T17:46:45.671Z,10.21
2022-10-17T17:49:12.593Z,10.20
2022-10-17T17:51:41.595Z,10.17
2022-10-17T17:54:11.713Z,10.21
2022-10-17T17:56:41.876Z,10.18
2022-10-17T17:59:11.609Z,10.13
2022-10-17T18:01:39.240Z,10.11
2022-10-17T18:04:09.407Z,10.08
2022-10-17T18:06:52.259Z,10.10
2022-10-17T18:09:37.361Z,10.09
2022-10-17T18:12:04.629Z,10.03
2022-10-17T18:14:34.453Z,9.97
2022-10-17T18:17:01.043Z,9.93
2022-10-17T18:19:33.985Z,9.89
2022-10-17T18:22:00.597Z,9.86
2022-10-17T18:24:34.469Z,9.81
2022-10-17T18:27:15.939Z,9.78
2022-10-17T18:32:33.477Z,9.72
2022-10-17T18:35:00.503Z,9.63
2022-10-17T18:37:27.245Z,9.34
2022-10-17T18:39:55.895Z,9.36
2022-10-17T18:42:25.195Z,9.28
2022-10-17T18:44:51.784Z,9.25
2022-10-17T18:47:18.326Z,9.29
2022-10-17T18:49:44.861Z,9.28
2022-10-17T18:52:11.430Z,9.33
2022-10-17T18:54:38.154Z,9.27
2022-10-17T18:57:04.991Z,9.17
2022-10-17T18:59:32.086Z,9.17
2022-10-17T19:01:59.144Z,9.13
2022-10-17T19:04:26.315Z,9.01
2022-10-17T19:06:53.136Z,8.78
2022-10-17T19:09:22.234Z,8.66
2022-10-17T19:11:52.178Z,8.60
2022-10-17T19:14:18.998Z,8.58
2022-10-17T19:16:48.949Z,8.65
2022-10-17T19:19:25.372Z,8.52
2022-10-17T19:21:52.705Z,8.48
2022-10-17T19:24:24.945Z,8.42
2022-10-17T19:26:53.823Z,8.27
2022-10-17T19:29:22.227Z,8.16
2022-10-17T19:31:49.504Z,8.10
2022-10-17T19:34:17.905Z,8.08
2022-10-17T19:36:45.144Z,8.15
2022-10-17T19:39:15.526Z,8.17
2022-10-17T19:41:44.093Z,8.19
2022-10-17T19:44:11.242Z,8.24
2022-10-17T19:46:38.897Z,8.23
2022-10-17T19:49:06.277Z,8.07
2022-10-17T19:51:33.517Z,7.82
2022-10-17T19:54:01.261Z,7.77
2022-10-17T19:56:32.404Z,7.75
2022-10-17T19:59:02.740Z,7.84
2022-10-17T20:01:38.804Z,7.75
2022-10-17T20:04:06.706Z,7.67
2022-10-17T20:06:33.975Z,7.72
2022-10-17T20:09:00.767Z,7.82
2022-10-17T20:11:28.791Z,7.75
2022-10-17T20:13:56.338Z,7.73
2022-10-17T20:16:25.273Z,7.61
2022-10-17T20:18:54.769Z,7.69
2022-10-17T20:21:34.920Z,7.81
2022-10-17T20:24:05.771Z,7.81
2022-10-17T20:26:38.096Z,7.84
2022-10-17T20:29:11.072Z,7.84
2022-10-17T20:31:39.107Z,7.86
2022-10-17T20:34:06.106Z,7.90
2022-10-17T20:36:36.973Z,7.84
2022-10-17T20:39:04.775Z,7.86
2022-10-17T20:41:31.512Z,7.77
2022-10-17T20:43:58.333Z,7.76
2022-10-17T20:46:45.290Z,7.74
2022-10-17T20:49:15.669Z,7.66
2022-10-17T20:51:42.784Z,7.58
2022-10-17T20:54:10.085Z,7.48
2022-10-17T20:56:38.660Z,7.41
2022-10-17T20:59:07.830Z,7.30
2022-10-17T21:01:35.872Z,7.24
2022-10-17T21:04:27.143Z,7.17
2022-10-17T21:06:51.918Z,7.19
2022-10-17T21:09:18.657Z,7.04
2022-10-17T21:11:45.367Z,7.07
2022-10-17T21:14:18.426Z,7.05
2022-10-17T21:16:45.184Z,6.97
2022-10-17T21:19:15.844Z,6.93
2022-10-17T21:21:45.098Z,6.98
2022-10-17T21:24:20.948Z,6.93
2022-10-17T21:26:55.219Z,6.89
2022-10-17T21:29:23.171Z,6.92
2022-10-17T21:31:50.137Z,6.89
2022-10-17T21:34:21.743Z,6.86
2022-10-17T21:36:48.924Z,6.78
2022-10-17T21:39:16.079Z,6.76
2022-10-17T21:41:43.769Z,6.73
2022-10-17T21:44:15.798Z,6.64
2022-10-17T21:46:43.150Z,6.54
2022-10-17T21:49:12.752Z,6.57
2022-10-17T21:51:39.948Z,6.55
2022-10-17T21:54:07.170Z,6.45
2022-10-17T21:56:37.334Z,6.39
2022-10-17T21:59:05.144Z,6.34
2022-10-17T22:01:35.638Z,6.35
2022-10-17T22:04:08.749Z,6.26
2022-10-17T22:06:40.091Z,6.35
2022-10-17T22:09:14.071Z,6.37
2022-10-17T22:11:41.383Z,6.31
2022-10-17T22:14:15.321Z,6.17
2022-10-17T22:16:44.257Z,6.14
2022-10-17T22:19:12.286Z,6.03
2022-10-17T22:21:39.120Z,5.86
2022-10-17T22:24:08.476Z,5.97
2022-10-17T22:26:37.163Z,6.09
2022-10-17T22:29:05.966Z,6.03
2022-10-17T22:31:32.757Z,6.04
2022-10-17T22:33:59.391Z,6.05
2022-10-17T22:36:26.102Z,5.95
2022-10-17T22:38:52.828Z,6.00
2022-10-17T22:41:19.662Z,6.10
2022-10-17T22:43:46.374Z,6.04
2022-10-17T22:46:16.188Z,5.97
2022-10-17T22:48:43.013Z,5.94
2022-10-17T22:51:09.940Z,5.91
2022-10-17T22:53:37.737Z,5.90
2022-10-17T22:56:08.136Z,5.86
2022-10-17T22:58:35.870Z,5.77
2022-10-17T23:01:04.239Z,5.72
2022-10-17T23:03:31.732Z,5.72
2022-10-17T23:05:58.964Z,5.74
2022-10-17T23:08:26.653Z,5.73
2022-10-17T23:10:53.961Z,5.70
2022-10-17T23:13:22.023Z,5.64
2022-10-17T23:15:53.530Z,5.61
2022-10-17T23:18:21.084Z,5.55
2022-10-17T23:20:48.218Z,5.49
2022-10-17T23:23:15.216Z,5.50
2022-10-17T23:25:42.171Z,5.49
2022-10-17T23:28:09.931Z,5.49
2022-10-17T23:30:37.775Z,5.43
2022-10-17T23:33:04.646Z,5.37
2022-10-17T23:35:32.169Z,5.40
2022-10-17T23:37:59.090Z,5.42
2022-10-17T23:40:25.918Z,5.40
2022-10-17T23:42:52.500Z,5.41
2022-10-17T23:45:19.192Z,5.37
2022-10-17T23:47:45.982Z,5.37
2022-10-17T23:50:12.952Z,5.37
2022-10-17T23:52:39.934Z,5.40
2022-10-17T23:55:07.435Z,5.34
2022-10-17T23:57:36.319Z,5.41
